createdAt,value
2023-01-03T00:01:25.418Z,101482.81
2023-01-03T00:03:57.760Z,101489.66
2023-01-03T00:06:30.083Z,101486.25
2023-01-03T00:08:59.635Z,101497.06
2023-01-03T00:11:49.569Z,101506.50
2023-01-03T00:14:23.356Z,101508.25
2023-01-03T00:16:57.870Z,101503.47
2023-01-03T00:19:27.939Z,101518.94
2023-01-03T00:21:55.225Z,101504.19
2023-01-03T00:24:22.803Z,101511.38
2023-01-03T00:26:49.797Z,101501.72
2023-01-03T00:29:17.368Z,101499.56
2023-01-03T00:31:44.287Z,101500.06
2023-01-03T00:34:11.593Z,101501.81
2023-01-03T00:36:39.331Z,101502.97
2023-01-03T00:39:07.203Z,101499.03
2023-01-03T00:41:34.301Z,101500.47
2023-01-03T00:44:01.474Z,101490.06
2023-01-03T00:46:30.595Z,101498.69
2023-01-03T00:48:57.685Z,101491.13
2023-01-03T00:51:28.383Z,101502.53
2023-01-03T00:53:57.701Z,101499.22
2023-01-03T00:56:30.460Z,101510.53
2023-01-03T00:58:57.924Z,101509.91
2023-01-03T01:01:47.632Z,101502.03
2023-01-03T01:04:19.867Z,101505.47
2023-01-03T01:06:53.632Z,101495.91
2023-01-03T01:09:31.852Z,101502.09
2023-01-03T01:11:59.136Z,101503.59
2023-01-03T01:14:29.382Z,101513.03
2023-01-03T01:17:00.228Z,101512.00
2023-01-03T01:19:37.899Z,101510.22
2023-01-03T01:22:06.267Z,101513.41
2023-01-03T01:24:34.451Z,101505.84
2023-01-03T01:27:01.475Z,101515.09
2023-01-03T01:29:29.672Z,101520.63
2023-01-03T01:31:56.633Z,101518.34
2023-01-03T01:34:23.661Z,101528.19
2023-01-03T01:36:50.598Z,101528.91
2023-01-03T01:39:25.141Z,101529.72
2023-01-03T01:42:19.773Z,101529.72
2023-01-03T01:44:52.142Z,101526.00
2023-01-03T01:47:36.454Z,101535.44
2023-01-03T01:50:25.018Z,101533.66
2023-01-03T01:52:57.673Z,101538.44
2023-01-03T01:55:30.979Z,101534.09
2023-01-03T01:57:58.280Z,101534.53
2023-01-03T02:00:25.213Z,101531.44
2023-01-03T02:02:54.265Z,101540.03
2023-01-03T02:05:22.442Z,101537.44
2023-01-03T02:07:51.568Z,101538.78
2023-01-03T02:10:48.277Z,101529.44
2023-01-03T02:13:50.182Z,101529.72
2023-01-03T02:16:23.344Z,101520.09
2023-01-03T02:19:24.053Z,101522.97
2023-01-03T02:22:38.967Z,101528.28
2023-01-03T02:25:33.180Z,101525.59
2023-01-03T02:28:28.069Z,101533.69
2023-01-03T02:31:08.115Z,101528.41
2023-01-03T02:33:59.656Z,101528.28
2023-01-03T02:36:43.070Z,101525.41
2023-01-03T02:39:40.838Z,101530.78
2023-01-03T02:42:49.912Z,101534.84
2023-01-03T02:45:32.452Z,101536.19
2023-01-03T02:48:27.440Z,101528.41
2023-01-03T02:50:58.051Z,101525.91
2023-01-03T02:53:40.811Z,101524.34
2023-01-03T02:56:18.154Z,101526.53
2023-01-03T02:58:52.070Z,101530.69
2023-01-03T03:01:20.138Z,101533.38
2023-01-03T03:03:48.168Z,101534.53
2023-01-03T03:06:22.694Z,101533.78
2023-01-03T03:08:49.952Z,101531.53
2023-01-03T03:11:35.706Z,101532.47
2023-01-03T03:14:31.162Z,101526.53
2023-01-03T03:17:05.153Z,101522.09
2023-01-03T03:19:54.451Z,101524.25
2023-01-03T03:23:02.519Z,101527.47
2023-01-03T03:25:36.189Z,101517.91
2023-01-03T03:28:29.111Z,101525.19
2023-01-03T03:31:22.945Z,101523.94
2023-01-03T03:34:15.012Z,101526.53
2023-01-03T03:36:59.504Z,101534.53
2023-01-03T03:39:47.247Z,101523.19
2023-01-03T03:42:53.062Z,101530.81
2023-01-03T03:45:54.569Z,101525.59
2023-01-03T03:48:57.282Z,101532.22
2023-01-03T03:51:28.924Z,101531.28
2023-01-03T03:53:57.957Z,101536.78
2023-01-03T03:56:31.756Z,101537.63
2023-01-03T03:59:07.939Z,101539.41
2023-01-03T04:01:39.209Z,101537.94
2023-01-03T04:04:19.124Z,101536.16
2023-01-03T04:06:49.832Z,101545.72
2023-01-03T04:09:18.032Z,101538.47
2023-01-03T04:11:45.243Z,101542.41
2023-01-03T04:14:12.645Z,101541.34
2023-01-03T04:16:41.119Z,101546.22
2023-01-03T04:19:08.705Z,101545.69
2023-01-03T04:21:36.764Z,101548.72
2023-01-03T04:24:05.172Z,101554.31
2023-01-03T04:26:32.421Z,101556.19
2023-01-03T04:28:59.425Z,101560.72
2023-01-03T04:31:26.520Z,101555.72
2023-01-03T04:33:54.079Z,101561.03
2023-01-03T04:36:21.302Z,101553.59
2023-01-03T04:38:48.403Z,101551.50
2023-01-03T04:41:15.816Z,101568.75
2023-01-03T04:44:01.676Z,101571.16
2023-01-03T04:46:31.408Z,101564.50
2023-01-03T04:48:58.821Z,101568.03
2023-01-03T04:51:26.141Z,101566.56
2023-01-03T04:53:53.472Z,101569.50
2023-01-03T04:56:38.970Z,101567.94
2023-01-03T04:59:06.288Z,101561.13
2023-01-03T05:01:33.335Z,101571.00
2023-01-03T05:04:02.085Z,101569.22
2023-01-03T05:06:29.769Z,101566.56
2023-01-03T05:08:57.106Z,101568.88
2023-01-03T05:11:24.479Z,101565.81
2023-01-03T05:13:51.498Z,101570.72
2023-01-03T05:16:18.852Z,101569.22
2023-01-03T05:18:48.723Z,101578.31
2023-01-03T05:21:37.643Z,101576.44
2023-01-03T05:24:24.241Z,101578.22
2023-01-03T05:26:53.171Z,101577.38
2023-01-03T05:29:21.955Z,101569.81
2023-01-03T05:31:49.986Z,101582.28
2023-01-03T05:34:17.059Z,101583.38
2023-01-03T05:36:46.719Z,101584.03
2023-01-03T05:39:14.609Z,101587.00
2023-01-03T05:41:59.611Z,101583.88
2023-01-03T05:44:34.554Z,101579.34
2023-01-03T05:47:03.872Z,101593.38
2023-01-03T05:49:30.873Z,101593.94
2023-01-03T05:51:57.812Z,101581.44
2023-01-03T05:54:24.926Z,101581.28
2023-01-03T05:56:51.935Z,101576.84
2023-01-03T05:59:19.847Z,101571.03
2023-01-03T06:01:46.888Z,101588.22
2023-01-03T06:04:13.965Z,101586.75
2023-01-03T06:06:40.905Z,101594.81
2023-01-03T06:09:07.880Z,101602.13
2023-01-03T06:11:34.773Z,101599.00
2023-01-03T06:14:01.893Z,101589.00
2023-01-03T06:16:47.272Z,101590.22
2023-01-03T06:19:14.306Z,101607.44
2023-01-03T06:21:41.642Z,101599.94
2023-01-03T06:24:09.274Z,101611.22
2023-01-03T06:26:37.584Z,101609.69
2023-01-03T06:29:05.678Z,101600.19
2023-01-03T06:31:32.998Z,101609.38
2023-01-03T06:34:00.063Z,101613.03
2023-01-03T06:36:27.217Z,101612.19
2023-01-03T06:38:55.562Z,101609.69
2023-01-03T06:41:22.575Z,101617.28
2023-01-03T06:43:49.657Z,101615.97
2023-01-03T06:46:35.496Z,101616.00
2023-01-03T06:49:20.863Z,101612.88
2023-01-03T06:52:08.011Z,101607.31
2023-01-03T06:54:37.921Z,101604.19
2023-01-03T06:57:06.000Z,101607.94
2023-01-03T06:59:33.236Z,101612.28
2023-01-03T07:02:02.614Z,101608.22
2023-01-03T07:04:29.738Z,101613.28
2023-01-03T07:06:56.770Z,101608.97
2023-01-03T07:09:24.391Z,101615.31
2023-01-03T07:11:51.621Z,101619.91
2023-01-03T07:14:19.054Z,101614.63
2023-01-03T07:16:48.379Z,101619.50
2023-01-03T07:19:22.863Z,101626.16
2023-01-03T07:21:49.807Z,101632.72
2023-01-03T07:24:18.763Z,101634.56
2023-01-03T07:26:45.894Z,101642.06
2023-01-03T07:29:12.925Z,101637.88
2023-01-03T07:31:41.533Z,101632.56
2023-01-03T07:34:09.530Z,101639.56
2023-01-03T07:36:36.988Z,101642.03
2023-01-03T07:39:04.316Z,101652.53
2023-01-03T07:41:50.146Z,101646.81
2023-01-03T07:44:17.119Z,101647.78
2023-01-03T07:46:44.262Z,101645.69
2023-01-03T07:49:12.470Z,101651.94
2023-01-03T07:51:39.964Z,101657.31
2023-01-03T07:54:07.658Z,101669.28
2023-01-03T07:56:35.361Z,101665.44
2023-01-03T07:59:02.577Z,101670.09
2023-01-03T08:01:30.605Z,101675.03
2023-01-03T08:03:57.960Z,101678.34
2023-01-03T08:06:25.394Z,101675.41
2023-01-03T08:09:11.764Z,101677.53
2023-01-03T08:11:57.803Z,101679.09
2023-01-03T08:14:26.848Z,101681.59
2023-01-03T08:16:56.106Z,101690.81
2023-01-03T08:19:24.389Z,101697.09
2023-01-03T08:21:51.835Z,101688.88
2023-01-03T08:24:18.807Z,101696.78
2023-01-03T08:26:45.825Z,101701.72
2023-01-03T08:29:13.074Z,101708.09
2023-01-03T08:31:46.289Z,101707.00
2023-01-03T08:34:18.775Z,101716.13
2023-01-03T08:36:55.578Z,101708.91
2023-01-03T08:39:28.829Z,101713.31
2023-01-03T08:42:03.894Z,101716.03
2023-01-03T08:44:31.060Z,101714.88
2023-01-03T08:47:00.521Z,101702.34
2023-01-03T08:49:27.661Z,101711.75
2023-01-03T08:51:54.577Z,101719.25
2023-01-03T08:54:21.449Z,101713.69
2023-01-03T08:56:48.360Z,101720.06
2023-01-03T08:59:15.348Z,101718.22
2023-01-03T09:01:42.480Z,101723.22
2023-01-03T09:04:09.667Z,101732.84
2023-01-03T09:06:36.832Z,101730.28
2023-01-03T09:09:08.996Z,101735.63
2023-01-03T09:11:36.099Z,101731.53
2023-01-03T09:14:03.075Z,101731.38
2023-01-03T09:16:30.252Z,101737.81
2023-01-03T09:18:57.861Z,101739.09
2023-01-03T09:21:24.824Z,101738.47
2023-01-03T09:23:51.886Z,101735.25
2023-01-03T09:26:18.914Z,101740.31
2023-01-03T09:28:45.999Z,101732.78
2023-01-03T09:31:13.127Z,101734.47
2023-01-03T09:33:40.178Z,101737.81
2023-01-03T09:36:07.795Z,101728.25
2023-01-03T09:38:34.735Z,101735.50
2023-01-03T09:41:06.200Z,101725.03
2023-01-03T09:43:41.698Z,101736.72
2023-01-03T09:46:22.289Z,101742.06
2023-01-03T09:48:50.797Z,101743.34
2023-01-03T09:51:49.362Z,101744.31
2023-01-03T09:54:57.804Z,101742.28
2023-01-03T09:57:55.183Z,101736.06
2023-01-03T10:00:43.481Z,101728.00
2023-01-03T10:03:50.493Z,101730.69
2023-01-03T10:06:59.921Z,101723.09
2023-01-03T10:09:50.888Z,101717.47
2023-01-03T10:12:53.710Z,101715.75
2023-01-03T10:15:44.182Z,101720.53
2023-01-03T10:18:26.092Z,101708.94
2023-01-03T10:21:16.329Z,101708.03
2023-01-03T10:23:44.213Z,101708.13
2023-01-03T10:26:12.548Z,101714.50
2023-01-03T10:28:44.473Z,101710.00
2023-01-03T10:31:53.322Z,101714.91
2023-01-03T10:34:20.309Z,101713.84
2023-01-03T10:36:47.512Z,101705.44
2023-01-03T10:39:28.833Z,101695.97
2023-01-03T10:41:59.774Z,101693.97
2023-01-03T10:44:32.688Z,101683.78
2023-01-03T10:47:15.878Z,101687.75
2023-01-03T10:49:47.034Z,101686.59
2023-01-03T10:52:24.678Z,101684.63
2023-01-03T10:55:00.644Z,101692.63
2023-01-03T10:57:46.449Z,101687.03
2023-01-03T11:00:37.094Z,101683.88
2023-01-03T11:03:11.724Z,101676.66
2023-01-03T11:05:42.081Z,101670.84
2023-01-03T11:08:19.401Z,101668.97
2023-01-03T11:11:04.674Z,101667.13
2023-01-03T11:13:40.102Z,101663.91
2023-01-03T11:16:19.188Z,101672.41
2023-01-03T11:19:03.016Z,101680.84
2023-01-03T11:21:53.467Z,101670.25
2023-01-03T11:24:38.452Z,101661.53
2023-01-03T11:27:45.134Z,101666.25
2023-01-03T11:30:55.504Z,101668.38
2023-01-03T11:34:06.180Z,101664.88
2023-01-03T11:36:51.550Z,101657.03
2023-01-03T11:39:53.375Z,101650.78
2023-01-03T11:43:06.541Z,101654.91
2023-01-03T11:45:56.259Z,101652.13
2023-01-03T11:48:56.948Z,101646.41
2023-01-03T11:51:39.425Z,101639.75
2023-01-03T11:54:31.898Z,101631.47
2023-01-03T11:57:16.512Z,101636.44
2023-01-03T12:00:16.035Z,101626.25
2023-01-03T12:03:08.520Z,101631.00
2023-01-03T12:05:44.511Z,101635.28
2023-01-03T12:08:20.308Z,101624.63
2023-01-03T12:11:20.445Z,101625.59
2023-01-03T12:14:01.973Z,101628.41
2023-01-03T12:17:04.588Z,101611.00
2023-01-03T12:19:53.426Z,101605.31
2023-01-03T12:22:45.868Z,101608.75
2023-01-03T12:25:43.454Z,101610.91
2023-01-03T12:28:10.368Z,101602.13
2023-01-03T12:30:59.358Z,101609.72
2023-01-03T12:34:20.033Z,101604.44
2023-01-03T12:37:20.692Z,101606.59
2023-01-03T12:40:26.960Z,101590.09
2023-01-03T12:43:13.120Z,101600.78
2023-01-03T12:46:24.428Z,101599.59
2023-01-03T12:49:17.109Z,101591.22
2023-01-03T12:51:45.218Z,101592.75
2023-01-03T12:54:33.162Z,101589.88
2023-01-03T12:57:47.369Z,101597.50
2023-01-03T13:00:32.611Z,101579.97
2023-01-03T13:03:37.893Z,101583.13
2023-01-03T13:06:18.971Z,101580.28
2023-01-03T13:08:57.529Z,101572.03
2023-01-03T13:11:36.917Z,101562.44
2023-01-03T13:14:18.284Z,101564.41
2023-01-03T13:17:25.581Z,101554.69
2023-01-03T13:20:31.753Z,101556.34
2023-01-03T13:23:01.377Z,101544.53
2023-01-03T13:25:45.787Z,101553.38
2023-01-03T13:28:26.880Z,101548.09
2023-01-03T13:31:18.892Z,101553.22
2023-01-03T13:33:56.019Z,101555.41
2023-01-03T13:37:02.018Z,101554.22
2023-01-03T13:39:47.080Z,101558.41
2023-01-03T13:42:35.122Z,101572.59
2023-01-03T13:45:15.252Z,101569.84
2023-01-03T13:47:54.226Z,101567.97
2023-01-03T13:50:32.622Z,101577.22
2023-01-03T13:53:11.075Z,101586.91
2023-01-03T13:56:18.089Z,101580.66
2023-01-03T13:58:50.662Z,101578.63
2023-01-03T14:01:49.399Z,101577.81
2023-01-03T14:04:49.568Z,101582.78
2023-01-03T14:07:59.362Z,101575.06
2023-01-03T14:10:53.322Z,101564.91
2023-01-03T14:14:00.889Z,101565.94
2023-01-03T14:16:46.949Z,101576.00
2023-01-03T14:19:32.315Z,101573.88
2023-01-03T14:22:29.871Z,101564.84
2023-01-03T14:25:07.662Z,101574.69
2023-01-03T14:27:43.353Z,101573.03
2023-01-03T14:30:29.392Z,101572.69
2023-01-03T14:32:56.584Z,101567.59
2023-01-03T14:35:40.277Z,101560.34
2023-01-03T14:38:24.535Z,101565.34
2023-01-03T14:40:52.058Z,101566.13
2023-01-03T14:43:21.552Z,101569.69
2023-01-03T14:46:08.001Z,101570.63
2023-01-03T14:48:37.123Z,101571.19
2023-01-03T14:51:05.920Z,101566.72
2023-01-03T14:53:33.975Z,101560.91
2023-01-03T14:56:01.531Z,101575.19
2023-01-03T14:58:31.260Z,101583.53
2023-01-03T15:01:01.993Z,101592.53
2023-01-03T15:03:36.855Z,101595.97
2023-01-03T15:06:24.208Z,101601.72
2023-01-03T15:09:14.991Z,101606.38
2023-01-03T15:11:57.016Z,101609.91
2023-01-03T15:14:39.142Z,101605.13
2023-01-03T15:17:16.415Z,101603.47
2023-01-03T15:20:00.715Z,101609.84
2023-01-03T15:22:44.121Z,101618.59
2023-01-03T15:25:34.002Z,101618.16
2023-01-03T15:28:29.670Z,101616.72
2023-01-03T15:31:12.265Z,101625.41
2023-01-03T15:33:39.670Z,101625.69
2023-01-03T15:36:19.117Z,101629.44
2023-01-03T15:38:48.828Z,101635.81
2023-01-03T15:42:00.207Z,101635.72
2023-01-03T15:44:36.201Z,101632.72
2023-01-03T15:47:07.919Z,101633.34
2023-01-03T15:49:54.949Z,101622.94
2023-01-03T15:52:29.995Z,101626.50
2023-01-03T15:54:57.045Z,101629.94
2023-01-03T15:57:30.032Z,101634.09
2023-01-03T16:00:01.120Z,101644.22
2023-01-03T16:02:30.038Z,101644.84
2023-01-03T16:04:57.709Z,101649.09
2023-01-03T16:07:26.233Z,101652.53
2023-01-03T16:09:57.201Z,101645.66
2023-01-03T16:12:36.510Z,101646.81
2023-01-03T16:15:05.182Z,101644.75
2023-01-03T16:17:32.852Z,101655.94
2023-01-03T16:20:00.503Z,101654.28
2023-01-03T16:22:34.942Z,101648.59
2023-01-03T16:25:02.842Z,101657.09
2023-01-03T16:27:36.870Z,101664.19
2023-01-03T16:30:06.589Z,101657.22
2023-01-03T16:32:33.881Z,101659.38
2023-01-03T16:35:11.719Z,101666.88
2023-01-03T16:37:38.644Z,101665.84
2023-01-03T16:40:21.148Z,101670.81
2023-01-03T16:42:48.518Z,101676.81
2023-01-03T16:45:17.670Z,101675.16
2023-01-03T16:47:53.800Z,101678.00
2023-01-03T16:50:20.917Z,101681.94
2023-01-03T16:52:55.930Z,101688.16
2023-01-03T16:55:33.203Z,101690.97
2023-01-03T16:58:01.331Z,101708.09
2023-01-03T17:00:34.513Z,101697.19
2023-01-03T17:03:02.665Z,101695.78
2023-01-03T17:05:35.998Z,101690.78
2023-01-03T17:08:30.789Z,101696.59
2023-01-03T17:11:02.136Z,101694.09
2023-01-03T17:13:32.742Z,101697.09
2023-01-03T17:16:01.757Z,101698.16
2023-01-03T17:18:32.481Z,101699.81
2023-01-03T17:21:20.313Z,101699.69
2023-01-03T17:23:47.971Z,101697.69
2023-01-03T17:26:19.735Z,101698.16
2023-01-03T17:28:48.375Z,101704.19
2023-01-03T17:31:25.030Z,101714.25
2023-01-03T17:33:53.292Z,101706.63
2023-01-03T17:36:30.012Z,101709.97
2023-01-03T17:39:00.188Z,101720.41
2023-01-03T17:41:53.347Z,101724.13
2023-01-03T17:44:21.365Z,101715.88
2023-01-03T17:47:07.652Z,101720.88
2023-01-03T17:49:36.675Z,101723.38
2023-01-03T17:52:06.691Z,101709.97
2023-01-03T17:54:40.904Z,101713.94
2023-01-03T17:57:12.796Z,101712.41
2023-01-03T17:59:39.831Z,101708.38
2023-01-03T18:02:20.444Z,101707.00
2023-01-03T18:05:15.997Z,101713.28
2023-01-03T18:07:34.765Z,101716.63
2023-01-03T18:10:03.005Z,101718.72
2023-01-03T18:12:30.097Z,101720.78
2023-01-03T18:15:00.083Z,101724.75
2023-01-03T18:17:34.622Z,101714.00
2023-01-03T18:20:02.553Z,101717.44
2023-01-03T18:22:30.614Z,101717.16
2023-01-03T18:25:01.498Z,101721.78
2023-01-03T18:27:29.559Z,101712.06
2023-01-03T18:29:58.537Z,101721.59
2023-01-03T18:32:32.772Z,101719.28
2023-01-03T18:35:00.195Z,101719.06
2023-01-03T18:37:36.157Z,101716.84
2023-01-03T18:40:07.100Z,101719.28
2023-01-03T18:43:01.545Z,101716.69
2023-01-03T18:45:28.710Z,101726.38
2023-01-03T18:47:55.701Z,101722.03
2023-01-03T18:50:22.960Z,101727.22
2023-01-03T18:52:52.672Z,101731.03
2023-01-03T18:55:33.513Z,101735.75
2023-01-03T18:58:17.473Z,101725.75
2023-01-03T19:00:46.593Z,101729.47
2023-01-03T19:03:25.849Z,101722.59
2023-01-03T19:05:58.356Z,101719.09
2023-01-03T19:08:33.003Z,101720.94
2023-01-03T19:11:27.697Z,101730.97
2023-01-03T19:13:55.544Z,101729.06
2023-01-03T19:16:26.413Z,101720.47
2023-01-03T19:18:56.331Z,101728.22
2023-01-03T19:21:32.565Z,101729.44
2023-01-03T19:24:38.116Z,101732.78
2023-01-03T19:27:20.964Z,101717.09
2023-01-03T19:29:49.299Z,101722.69
2023-01-03T19:32:30.059Z,101727.50
2023-01-03T19:34:57.129Z,101728.78
2023-01-03T19:37:24.108Z,101732.72
2023-01-03T19:39:51.161Z,101727.63
2023-01-03T19:42:39.515Z,101719.31
2023-01-03T19:45:30.544Z,101726.66
2023-01-03T19:48:00.244Z,101723.59
2023-01-03T19:50:37.239Z,101720.09
2023-01-03T19:53:04.361Z,101715.84
2023-01-03T19:55:38.014Z,101718.09
2023-01-03T19:58:29.274Z,101724.75
2023-01-03T20:00:56.758Z,101705.59
2023-01-03T20:03:44.027Z,101700.25
2023-01-03T20:06:17.517Z,101706.44
2023-01-03T20:08:47.273Z,101704.59
2023-01-03T20:11:22.530Z,101709.09
2023-01-03T20:13:49.993Z,101702.28
2023-01-03T20:16:29.850Z,101701.66
2023-01-03T20:18:56.954Z,101711.91
2023-01-03T20:21:29.062Z,101713.44
2023-01-03T20:24:05.665Z,101705.16
2023-01-03T20:26:43.776Z,101705.06
2023-01-03T20:29:14.703Z,101701.56
2023-01-03T20:31:44.874Z,101706.25
2023-01-03T20:34:11.925Z,101699.25
2023-01-03T20:36:49.379Z,101701.09
2023-01-03T20:39:29.480Z,101691.94
2023-01-03T20:42:03.158Z,101698.03
2023-01-03T20:44:30.555Z,101690.09
2023-01-03T20:46:58.912Z,101694.63
2023-01-03T20:49:43.250Z,101689.28
2023-01-03T20:52:16.267Z,101683.94
2023-01-03T20:54:43.552Z,101677.25
2023-01-03T20:57:19.539Z,101679.41
2023-01-03T20:59:46.509Z,101672.09
2023-01-03T21:02:17.087Z,101665.41
2023-01-03T21:04:47.156Z,101671.41
2023-01-03T21:07:49.855Z,101662.81
2023-01-03T21:10:24.949Z,101654.88
2023-01-03T21:12:53.383Z,101658.19
2023-01-03T21:15:22.435Z,101663.97
2023-01-03T21:17:55.596Z,101652.69
2023-01-03T21:20:26.009Z,101650.53
2023-01-03T21:22:59.298Z,101659.69
2023-01-03T21:25:34.004Z,101656.91
2023-01-03T21:28:05.145Z,101660.31
2023-01-03T21:30:33.085Z,101660.72
2023-01-03T21:33:00.193Z,101662.22
2023-01-03T21:35:32.091Z,101654.25
2023-01-03T21:37:58.975Z,101655.00
2023-01-03T21:40:29.586Z,101654.06
2023-01-03T21:43:05.796Z,101658.31
2023-01-03T21:45:38.338Z,101654.63
2023-01-03T21:48:14.607Z,101654.38
2023-01-03T21:50:47.662Z,101663.00
2023-01-03T21:53:17.741Z,101657.81
2023-01-03T21:55:45.734Z,101658.38
2023-01-03T21:58:18.168Z,101658.56
2023-01-03T22:00:46.357Z,101651.53
2023-01-03T22:03:35.260Z,101652.94
2023-01-03T22:06:10.782Z,101653.22
2023-01-03T22:08:39.825Z,101656.13
2023-01-03T22:11:08.157Z,101669.91
2023-01-03T22:13:38.603Z,101653.91
2023-01-03T22:16:09.789Z,101630.19
2023-01-03T22:18:52.969Z,101610.22
2023-01-03T22:21:23.068Z,101617.22
2023-01-03T22:23:49.947Z,101626.22
2023-01-03T22:26:21.011Z,101627.72
2023-01-03T22:28:48.231Z,101619.97
2023-01-03T22:31:23.023Z,101621.31
2023-01-03T22:33:51.067Z,101631.22
2023-01-03T22:36:19.065Z,101626.88
2023-01-03T22:38:47.046Z,101621.13
2023-01-03T22:41:22.173Z,101628.56
2023-01-03T22:43:52.728Z,101643.06
2023-01-03T22:46:33.027Z,101637.88
2023-01-03T22:49:09.206Z,101646.56
2023-01-03T22:51:36.169Z,101633.31
2023-01-03T22:54:08.101Z,101629.47
2023-01-03T22:56:39.099Z,101644.06
2023-01-03T22:59:06.088Z,101640.72
2023-01-03T23:01:34.166Z,101640.66
2023-01-03T23:04:01.688Z,101631.22
2023-01-03T23:06:30.643Z,101630.72
2023-01-03T23:08:58.948Z,101622.91
2023-01-03T23:11:50.825Z,101638.59
2023-01-03T23:14:22.921Z,101630.97
2023-01-03T23:16:52.362Z,101623.97
2023-01-03T23:19:22.680Z,101629.81
2023-01-03T23:21:49.797Z,101625.06
2023-01-03T23:24:21.235Z,101621.53
2023-01-03T23:26:48.480Z,101619.41
2023-01-03T23:29:15.724Z,101609.72
2023-01-03T23:31:43.807Z,101612.75
2023-01-03T23:34:12.738Z,101603.16
2023-01-03T23:36:43.091Z,101610.56
2023-01-03T23:39:16.709Z,101605.72
2023-01-03T23:41:46.475Z,101604.38
2023-01-03T23:44:16.863Z,101602.63
2023-01-03T23:46:45.882Z,101590.56
2023-01-03T23:49:30.049Z,101586.31
2023-01-03T23:52:00.147Z,101579.38
2023-01-03T23:54:31.117Z,101571.88
2023-01-03T23:56:59.048Z,101573.97
2023-01-03T23:59:31.417Z,101578.22
